createdAt,value
2019-02-14T00:01:53.710Z,18.07
2019-02-14T00:04:23.612Z,17.83
2019-02-14T00:06:54.690Z,19.57
2019-02-14T00:09:25.786Z,18.37
2019-02-14T00:11:55.902Z,18.23
2019-02-14T00:14:25.848Z,16.27
2019-02-14T00:16:55.904Z,16.73
2019-02-14T00:19:27.928Z,17.00
2019-02-14T00:21:58.005Z,15.90
2019-02-14T00:24:27.917Z,14.80
2019-02-14T00:26:57.951Z,16.63
2019-02-14T00:29:29.020Z,14.67
2019-02-14T00:31:59.006Z,15.20
2019-02-14T00:34:28.930Z,13.93
2019-02-14T00:36:58.899Z,14.93
2019-02-14T00:39:30.114Z,13.40
2019-02-14T00:42:00.139Z,14.37
2019-02-14T00:44:30.035Z,13.97
2019-02-14T00:47:00.061Z,14.27
2019-02-14T00:49:31.232Z,13.80
2019-02-14T00:52:01.169Z,13.30
2019-02-14T00:54:31.156Z,14.30
2019-02-14T00:57:02.228Z,13.80
2019-02-14T00:59:33.416Z,13.40
2019-02-14T01:02:04.548Z,14.37
2019-02-14T01:04:34.563Z,13.53
2019-02-14T01:07:05.777Z,13.77
2019-02-14T01:09:36.958Z,13.10
2019-02-14T01:12:07.337Z,13.90
2019-02-14T01:17:34.981Z,14.40
2019-02-14T01:20:06.227Z,14.47
2019-02-14T01:22:36.216Z,14.20
2019-02-14T01:25:06.927Z,13.43
2019-02-14T01:27:37.129Z,14.03
2019-02-14T01:30:29.101Z,13.90
2019-02-14T01:32:59.125Z,13.30
2019-02-14T01:35:52.259Z,13.47
2019-02-14T01:38:22.317Z,13.47
2019-02-14T01:40:52.206Z,13.57
2019-02-14T01:43:22.242Z,13.97
2019-02-14T01:45:52.158Z,14.67
2019-02-14T01:48:22.214Z,14.50
2019-02-14T01:50:52.104Z,14.07
2019-02-14T01:53:22.093Z,13.57
2019-02-14T01:55:52.063Z,13.57
2019-02-14T01:58:22.052Z,14.70
2019-02-14T02:00:53.193Z,14.13
2019-02-14T02:03:23.139Z,13.23
2019-02-14T02:05:53.158Z,13.50
2019-02-14T02:08:24.139Z,13.43
2019-02-14T02:10:54.458Z,13.83
2019-02-14T02:13:24.440Z,13.90
2019-02-14T02:15:55.574Z,14.00
2019-02-14T02:18:25.827Z,13.80
2019-02-14T02:20:55.839Z,13.87
2019-02-14T02:23:25.870Z,13.97
2019-02-14T02:25:55.854Z,14.60
2019-02-14T02:28:25.831Z,14.27
2019-02-14T02:30:55.844Z,13.33
2019-02-14T02:33:25.842Z,14.47
2019-02-14T02:36:00.392Z,14.67
2019-02-14T02:38:27.638Z,14.50
2019-02-14T02:40:57.716Z,14.30
2019-02-14T02:43:27.690Z,14.87
2019-02-14T02:45:57.684Z,15.17
2019-02-14T02:48:27.800Z,14.20
2019-02-14T02:50:57.812Z,14.40
2019-02-14T02:53:27.793Z,14.17
2019-02-14T02:55:57.809Z,15.10
2019-02-14T02:58:27.788Z,14.40
2019-02-14T03:00:57.923Z,14.50
2019-02-14T03:03:27.889Z,14.53
2019-02-14T03:05:57.907Z,14.30
2019-02-14T03:08:28.870Z,13.97
2019-02-14T03:10:58.893Z,13.27
2019-02-14T03:13:28.899Z,14.87
2019-02-14T03:16:00.011Z,14.17
2019-02-14T03:18:30.034Z,14.23
2019-02-14T03:21:00.047Z,13.63
2019-02-14T03:23:30.042Z,13.17
2019-02-14T03:26:00.060Z,12.53
2019-02-14T03:28:30.052Z,13.67
2019-02-14T03:31:00.075Z,13.80
2019-02-14T03:33:30.069Z,13.27
2019-02-14T03:36:00.100Z,13.17
2019-02-14T03:38:30.079Z,13.20
2019-02-14T03:41:00.081Z,13.23
2019-02-14T03:43:30.078Z,13.90
2019-02-14T03:46:00.086Z,13.13
2019-02-14T03:48:30.131Z,13.27
2019-02-14T03:51:00.165Z,13.60
2019-02-14T03:53:30.150Z,12.83
2019-02-14T03:56:00.190Z,13.03
2019-02-14T03:58:30.528Z,12.83
2019-02-14T04:01:00.542Z,12.07
2019-02-14T04:03:30.667Z,13.97
2019-02-14T04:06:00.692Z,12.77
2019-02-14T04:08:31.616Z,13.47
2019-02-14T04:11:01.639Z,12.93
2019-02-14T04:13:31.649Z,13.73
2019-02-14T04:16:01.662Z,13.37
2019-02-14T04:18:31.720Z,12.00
2019-02-14T04:21:01.776Z,12.33
2019-02-14T04:23:31.759Z,12.97
2019-02-14T04:26:01.797Z,12.30
2019-02-14T04:28:31.774Z,12.40
2019-02-14T04:31:01.801Z,11.83
2019-02-14T04:33:32.889Z,11.60
2019-02-14T04:36:02.906Z,12.90
2019-02-14T04:38:32.904Z,12.57
2019-02-14T04:41:02.937Z,12.27
2019-02-14T04:43:32.910Z,12.23
2019-02-14T04:46:02.946Z,12.37
2019-02-14T04:48:33.011Z,12.47
2019-02-14T04:51:03.037Z,12.70
2019-02-14T04:53:33.036Z,11.90
2019-02-14T04:56:03.060Z,13.90
2019-02-14T04:58:33.050Z,12.13
2019-02-14T05:01:03.125Z,13.30
2019-02-14T05:03:33.110Z,13.07
2019-02-14T05:06:03.137Z,12.80
2019-02-14T05:08:45.772Z,12.57
2019-02-14T05:11:15.877Z,12.90
2019-02-14T05:14:05.151Z,12.37
2019-02-14T05:16:35.133Z,12.57
2019-02-14T05:19:05.262Z,11.87
2019-02-14T05:21:35.247Z,13.00
2019-02-14T05:24:05.262Z,13.50
2019-02-14T05:26:35.265Z,12.87
2019-02-14T05:29:06.238Z,12.77
2019-02-14T05:31:37.562Z,13.77
2019-02-14T05:34:07.745Z,12.87
2019-02-14T05:36:37.862Z,14.43
2019-02-14T05:39:08.874Z,12.87
2019-02-14T05:41:38.905Z,13.27
2019-02-14T05:44:09.904Z,13.17
2019-02-14T05:46:39.893Z,13.80
2019-02-14T05:49:10.982Z,13.63
2019-02-14T05:51:40.984Z,13.63
2019-02-14T05:54:10.897Z,13.37
2019-02-14T05:56:40.873Z,15.87
2019-02-14T05:59:11.887Z,15.57
2019-02-14T06:01:41.881Z,13.60
2019-02-14T06:04:12.512Z,14.33
2019-02-14T06:06:42.524Z,15.20
2019-02-14T06:09:14.535Z,14.30
2019-02-14T06:11:44.564Z,16.17
2019-02-14T06:14:14.553Z,14.53
2019-02-14T06:16:44.573Z,14.57
2019-02-14T06:19:15.733Z,13.80
2019-02-14T06:21:45.789Z,14.87
2019-02-14T06:24:15.751Z,14.67
2019-02-14T06:26:45.767Z,24.00
2019-02-14T06:29:16.939Z,35.17
2019-02-14T06:31:46.973Z,19.13
2019-02-14T06:34:16.965Z,14.03
2019-02-14T06:36:46.978Z,12.53
2019-02-14T06:39:18.107Z,13.83
2019-02-14T06:41:48.169Z,13.23
2019-02-14T06:44:18.124Z,13.23
2019-02-14T06:46:48.152Z,12.77
2019-02-14T06:49:19.317Z,12.77
2019-02-14T06:51:49.335Z,12.70
2019-02-14T06:54:19.328Z,11.87
2019-02-14T06:56:49.341Z,11.87
2019-02-14T06:59:22.538Z,12.73
2019-02-14T07:01:52.565Z,13.07
2019-02-14T07:04:22.570Z,12.60
2019-02-14T07:06:52.598Z,12.33
2019-02-14T07:09:24.558Z,12.57
2019-02-14T07:11:54.571Z,12.97
2019-02-14T07:14:24.677Z,36.23
2019-02-14T07:16:54.636Z,24.87
2019-02-14T07:19:24.698Z,19.60
2019-02-14T07:21:54.610Z,14.77
2019-02-14T07:24:24.616Z,13.50
2019-02-14T07:26:54.617Z,12.30
2019-02-14T07:29:25.909Z,12.63
2019-02-14T07:31:56.053Z,11.90
2019-02-14T07:34:26.925Z,11.70
2019-02-14T07:36:57.755Z,10.63
2019-02-14T07:39:30.617Z,9.95
2019-02-14T07:42:01.414Z,11.28
2019-02-14T07:44:32.432Z,9.73
2019-02-14T07:47:03.127Z,11.45
2019-02-14T07:49:35.031Z,8.85
2019-02-14T07:52:05.738Z,9.33
2019-02-14T07:54:38.260Z,12.03
2019-02-14T07:57:19.534Z,10.60
2019-02-14T07:59:50.433Z,9.13
2019-02-14T08:02:42.058Z,10.13
2019-02-14T08:05:13.302Z,9.30
2019-02-14T08:10:26.021Z,34.18
2019-02-14T08:12:56.817Z,16.67
2019-02-14T08:15:27.910Z,11.10
2019-02-14T08:17:58.543Z,10.65
2019-02-14T08:20:38.905Z,10.50
2019-02-14T08:23:09.554Z,9.88
2019-02-14T08:25:42.112Z,10.60
2019-02-14T08:28:12.744Z,9.53
2019-02-14T08:30:44.634Z,10.55
2019-02-14T08:33:15.482Z,9.85
2019-02-14T08:35:46.254Z,12.23
2019-02-14T08:38:16.734Z,11.53
2019-02-14T08:40:48.358Z,11.48
2019-02-14T08:43:18.861Z,10.70
2019-02-14T08:45:49.430Z,8.55
2019-02-14T08:48:19.939Z,12.23
2019-02-14T08:50:51.635Z,10.95
2019-02-14T08:53:22.130Z,10.48
2019-02-14T08:55:53.715Z,8.43
2019-02-14T08:58:24.223Z,10.05
2019-02-14T09:01:14.173Z,11.97
2019-02-14T09:03:44.749Z,12.78
2019-02-14T09:06:15.373Z,12.80
2019-02-14T09:08:46.979Z,14.60
2019-02-14T09:11:18.586Z,12.00
2019-02-14T09:13:49.165Z,13.22
2019-02-14T09:16:19.779Z,14.18
2019-02-14T09:18:51.522Z,13.25
2019-02-14T09:21:26.102Z,12.78
2019-02-14T09:23:56.716Z,9.83
2019-02-14T09:26:27.308Z,12.28
2019-02-14T09:28:58.924Z,13.03
2019-02-14T09:31:29.518Z,13.45
2019-02-14T09:34:00.044Z,13.85
2019-02-14T09:36:30.644Z,12.25
2019-02-14T09:39:02.256Z,14.83
2019-02-14T09:41:34.153Z,14.43
2019-02-14T09:44:04.662Z,15.30
2019-02-14T09:46:35.265Z,17.55
2019-02-14T09:49:06.882Z,15.10
2019-02-14T09:51:37.536Z,18.62
2019-02-14T09:54:07.705Z,21.50
2019-02-14T09:56:38.011Z,18.10
2019-02-14T09:59:10.677Z,23.73
2019-02-14T10:01:40.967Z,23.33
2019-02-14T10:04:11.242Z,21.57
2019-02-14T10:06:41.826Z,24.25
2019-02-14T10:09:15.022Z,23.27
2019-02-14T10:11:45.652Z,24.50
2019-02-14T10:14:16.271Z,25.40
2019-02-14T10:16:46.863Z,22.13
2019-02-14T10:19:18.521Z,20.88
2019-02-14T10:21:49.168Z,21.85
2019-02-14T10:24:19.715Z,22.87
2019-02-14T10:26:50.330Z,23.60
2019-02-14T10:29:21.965Z,22.70
2019-02-14T10:31:52.551Z,24.15
2019-02-14T10:34:24.064Z,23.00
2019-02-14T10:36:55.010Z,25.43
2019-02-14T10:39:27.689Z,24.37
2019-02-14T10:41:58.259Z,25.23
2019-02-14T10:44:28.771Z,24.18
2019-02-14T10:46:59.806Z,24.00
2019-02-14T10:49:31.765Z,23.83
2019-02-14T10:52:02.390Z,23.55
2019-02-14T10:54:32.847Z,23.52
2019-02-14T10:57:04.439Z,24.55
2019-02-14T10:59:36.111Z,22.90
2019-02-14T11:02:06.691Z,23.18
2019-02-14T11:04:37.163Z,26.00
2019-02-14T11:07:07.727Z,25.15
2019-02-14T11:09:39.357Z,23.87
2019-02-14T11:12:10.901Z,21.77
2019-02-14T11:14:53.501Z,23.70
2019-02-14T11:17:24.289Z,24.67
2019-02-14T11:19:57.153Z,25.30
2019-02-14T11:22:28.020Z,24.55
2019-02-14T11:24:59.819Z,22.60
2019-02-14T11:27:37.315Z,23.07
2019-02-14T11:30:11.179Z,24.05
2019-02-14T11:32:41.783Z,23.65
2019-02-14T11:35:12.256Z,24.63
2019-02-14T11:37:42.958Z,23.05
2019-02-14T11:40:15.157Z,24.75
2019-02-14T11:42:46.058Z,23.30
2019-02-14T11:45:19.519Z,22.22
2019-02-14T11:47:50.159Z,22.58
2019-02-14T11:50:20.698Z,22.95
2019-02-14T11:52:51.486Z,23.10
2019-02-14T11:55:21.963Z,23.25
2019-02-14T11:57:52.619Z,24.05
2019-02-14T12:00:29.775Z,26.02
2019-02-14T12:03:00.392Z,22.77
2019-02-14T12:05:30.870Z,25.65
2019-02-14T12:08:01.463Z,25.48
2019-02-14T12:10:32.246Z,23.40
2019-02-14T12:13:03.553Z,24.98
2019-02-14T12:15:34.697Z,25.70
2019-02-14T12:18:05.291Z,25.72
2019-02-14T12:20:37.421Z,24.90
2019-02-14T12:23:07.994Z,25.43
2019-02-14T12:25:38.474Z,26.25
2019-02-14T12:28:09.230Z,27.45
2019-02-14T12:30:39.717Z,26.30
2019-02-14T12:33:10.293Z,26.48
2019-02-14T12:35:40.776Z,25.50
2019-02-14T12:38:11.342Z,26.75
2019-02-14T12:40:41.934Z,26.45
2019-02-14T12:43:12.591Z,27.70
2019-02-14T12:45:43.071Z,27.50
2019-02-14T12:48:14.832Z,29.63
2019-02-14T12:50:45.657Z,26.75
2019-02-14T12:53:16.300Z,26.40
2019-02-14T12:55:47.925Z,26.15
2019-02-14T12:58:18.472Z,24.20
2019-02-14T13:00:49.018Z,27.40
2019-02-14T13:03:19.601Z,26.82
2019-02-14T13:05:50.090Z,29.48
2019-02-14T13:08:20.793Z,29.98
2019-02-14T13:10:51.292Z,28.75
2019-02-14T13:13:22.863Z,34.27
2019-02-14T13:15:53.468Z,32.28
2019-02-14T13:18:24.086Z,31.75
2019-02-14T13:20:54.582Z,30.08
2019-02-14T13:23:24.640Z,29.85
2019-02-14T13:25:55.142Z,29.37
2019-02-14T13:28:25.793Z,28.80
2019-02-14T13:30:56.356Z,26.97
2019-02-14T13:33:26.955Z,29.12
2019-02-14T13:35:57.511Z,25.57
2019-02-14T13:38:28.140Z,28.67
2019-02-14T13:40:58.728Z,29.77
2019-02-14T13:43:29.456Z,29.92
2019-02-14T13:46:00.055Z,29.52
2019-02-14T13:48:32.188Z,28.83
2019-02-14T13:51:02.677Z,29.65
2019-02-14T13:53:33.338Z,29.70
2019-02-14T13:56:03.820Z,29.55
2019-02-14T13:58:34.410Z,29.23
2019-02-14T14:01:04.925Z,29.07
2019-02-14T14:03:35.524Z,29.07
2019-02-14T14:06:06.053Z,29.98
2019-02-14T14:08:36.643Z,30.50
2019-02-14T14:11:06.554Z,28.57
2019-02-14T14:13:40.073Z,27.35
2019-02-14T14:16:10.759Z,30.20
2019-02-14T14:18:41.400Z,29.98
2019-02-14T14:21:11.919Z,32.05
2019-02-14T14:23:42.786Z,31.30
2019-02-14T14:26:13.378Z,31.55
2019-02-14T14:28:43.971Z,29.27
2019-02-14T14:31:14.446Z,30.88
2019-02-14T14:33:45.061Z,30.55
2019-02-14T14:36:15.531Z,27.77
2019-02-14T14:38:46.138Z,27.67
2019-02-14T14:41:16.641Z,28.80
2019-02-14T14:43:48.798Z,28.85
2019-02-14T14:46:20.850Z,28.87
2019-02-14T14:48:52.423Z,29.42
2019-02-14T14:51:22.897Z,30.30
2019-02-14T14:53:53.537Z,26.60
2019-02-14T14:56:24.026Z,30.02
2019-02-14T14:58:55.287Z,29.23
2019-02-14T15:01:25.805Z,29.45
2019-02-14T15:03:55.827Z,26.87
2019-02-14T15:06:26.294Z,26.87
2019-02-14T15:08:57.884Z,30.48
2019-02-14T15:11:28.376Z,30.75
2019-02-14T15:13:59.948Z,29.82
2019-02-14T15:16:30.540Z,31.30
2019-02-14T15:19:02.258Z,31.60
2019-02-14T15:21:32.765Z,30.62
2019-02-14T15:24:03.425Z,30.02
2019-02-14T15:26:33.907Z,32.53
2019-02-14T15:29:05.526Z,30.62
2019-02-14T15:31:36.028Z,32.35
2019-02-14T15:34:06.591Z,34.30
2019-02-14T15:36:37.077Z,32.73
2019-02-14T15:39:07.762Z,34.15
2019-02-14T15:41:38.434Z,33.73
2019-02-14T15:44:08.990Z,33.58
2019-02-14T15:46:40.679Z,34.30
2019-02-14T15:49:12.425Z,34.18
2019-02-14T15:51:43.803Z,33.05
2019-02-14T15:54:14.544Z,32.83
2019-02-14T15:56:45.049Z,32.65
2019-02-14T15:59:17.205Z,32.28
2019-02-14T16:01:48.685Z,31.17
2019-02-14T16:04:19.380Z,35.85
2019-02-14T16:06:51.924Z,32.45
2019-02-14T16:09:23.091Z,32.80
2019-02-14T16:11:55.165Z,33.80
2019-02-14T16:14:26.572Z,34.20
2019-02-14T16:16:56.579Z,33.02
2019-02-14T16:19:27.728Z,34.05
2019-02-14T16:21:58.229Z,32.93
2019-02-14T16:24:28.913Z,31.52
2019-02-14T16:26:59.563Z,29.87
2019-02-14T16:29:31.954Z,30.35
2019-02-14T16:32:02.425Z,31.60
2019-02-14T16:34:33.025Z,29.12
2019-02-14T16:37:04.237Z,29.82
2019-02-14T16:39:35.261Z,31.73
2019-02-14T16:42:05.753Z,30.00
2019-02-14T16:44:36.350Z,33.58
2019-02-14T16:47:06.820Z,32.98
2019-02-14T16:49:37.507Z,33.40
2019-02-14T16:52:08.009Z,33.95
2019-02-14T16:54:38.770Z,35.70
2019-02-14T16:57:09.242Z,33.65
2019-02-14T16:59:42.465Z,32.70
2019-02-14T17:02:13.055Z,32.20
2019-02-14T17:04:45.027Z,32.28
2019-02-14T17:07:15.322Z,36.38
2019-02-14T17:09:45.785Z,34.38
2019-02-14T17:12:15.727Z,33.10
2019-02-14T17:14:47.290Z,30.77
2019-02-14T17:17:17.887Z,34.60
2019-02-14T17:19:48.475Z,32.20
2019-02-14T17:22:19.019Z,32.10
2019-02-14T17:24:49.671Z,32.05
2019-02-14T17:27:19.581Z,32.23
2019-02-14T17:29:50.258Z,34.43
2019-02-14T17:32:20.118Z,34.23
2019-02-14T17:34:51.141Z,32.25
2019-02-14T17:37:21.792Z,34.33
2019-02-14T17:39:51.844Z,36.17
2019-02-14T17:42:22.608Z,34.50
2019-02-14T17:44:53.534Z,33.33
2019-02-14T17:47:24.579Z,37.15
2019-02-14T17:49:55.716Z,36.50
2019-02-14T17:52:26.533Z,34.90
2019-02-14T17:54:57.074Z,32.35
2019-02-14T17:57:27.444Z,33.63
2019-02-14T17:59:58.473Z,32.95
2019-02-14T18:02:28.839Z,34.50
2019-02-14T18:04:59.811Z,39.73
2019-02-14T18:07:33.477Z,35.25
2019-02-14T18:10:06.588Z,37.15
2019-02-14T18:12:37.496Z,35.75
2019-02-14T18:15:13.719Z,33.53
2019-02-14T18:17:44.250Z,39.95
2019-02-14T18:20:15.796Z,38.03
2019-02-14T18:22:46.748Z,35.83
2019-02-14T18:25:17.888Z,37.73
2019-02-14T18:27:48.798Z,34.88
2019-02-14T18:30:19.152Z,36.37
2019-02-14T18:32:49.485Z,37.48
2019-02-14T18:35:19.933Z,36.50
2019-02-14T18:37:50.259Z,36.45
2019-02-14T18:40:20.799Z,36.07
2019-02-14T18:42:51.325Z,40.23
2019-02-14T18:45:27.028Z,40.50
2019-02-14T18:47:57.139Z,37.85
2019-02-14T18:50:28.173Z,37.48
2019-02-14T18:52:58.770Z,36.43
2019-02-14T18:55:29.209Z,38.00
2019-02-14T18:57:59.419Z,40.20
2019-02-14T19:00:30.475Z,39.42
2019-02-14T19:03:00.720Z,38.43
2019-02-14T19:05:31.166Z,38.00
2019-02-14T19:08:01.478Z,37.13
2019-02-14T19:10:33.508Z,38.20
2019-02-14T19:13:03.815Z,38.83
2019-02-14T19:15:35.833Z,41.02
2019-02-14T19:18:06.205Z,44.58
2019-02-14T19:20:36.688Z,42.37
2019-02-14T19:23:06.967Z,39.20
2019-02-14T19:25:37.510Z,38.15
2019-02-14T19:28:11.096Z,37.83
2019-02-14T19:30:41.679Z,39.80
2019-02-14T19:33:12.010Z,40.17
2019-02-14T19:35:42.459Z,40.92
2019-02-14T19:49:14.093Z,37.30
2019-02-14T19:51:54.019Z,38.80
2019-02-14T19:57:08.965Z,37.43
2019-02-14T19:59:39.405Z,40.03
2019-02-14T20:02:09.939Z,40.03
2019-02-14T20:04:40.324Z,39.63
2019-02-14T20:21:03.910Z,33.23
2019-02-14T20:23:35.874Z,34.10
2019-02-14T20:26:06.250Z,33.63
2019-02-14T20:28:36.964Z,35.67
2019-02-14T20:37:50.048Z,38.07
2019-02-14T20:40:49.071Z,35.93
2019-02-14T20:44:16.636Z,35.90
2019-02-14T20:52:18.098Z,36.07
2019-02-14T20:54:48.597Z,38.93
2019-02-14T20:57:21.116Z,42.23
2019-02-14T20:59:52.927Z,34.40
2019-02-14T21:02:23.027Z,34.17
2019-02-14T21:04:53.110Z,31.50
2019-02-14T21:07:23.182Z,32.07
2019-02-14T21:09:52.962Z,35.20
2019-02-14T21:12:22.920Z,32.23
2019-02-14T21:14:52.992Z,32.13
2019-02-14T21:17:22.992Z,32.87
2019-02-14T21:19:53.048Z,32.70
2019-02-14T21:22:23.044Z,31.30
2019-02-14T21:28:19.767Z,29.93
2019-02-14T22:30:02.618Z,28.27
2019-02-14T22:35:40.206Z,27.03
2019-02-14T22:38:10.325Z,27.97
2019-02-14T22:40:40.301Z,27.50
2019-02-14T22:43:10.176Z,28.73
2019-02-14T22:45:40.127Z,28.53
2019-02-14T22:48:11.060Z,29.37
2019-02-14T22:53:54.388Z,28.37
2019-02-14T22:56:24.295Z,29.90
2019-02-14T22:58:54.381Z,35.37
2019-02-14T23:01:24.600Z,50.80
2019-02-14T23:03:54.672Z,35.13
2019-02-14T23:06:24.619Z,30.03
2019-02-14T23:08:57.999Z,30.17
2019-02-14T23:11:28.206Z,31.33
2019-02-14T23:13:58.064Z,35.67
2019-02-14T23:16:27.940Z,33.80
2019-02-14T23:18:58.878Z,30.80
2019-02-14T23:21:28.768Z,31.47
2019-02-14T23:23:58.704Z,31.90
2019-02-14T23:26:28.573Z,32.27
2019-02-14T23:28:59.740Z,31.63
2019-02-14T23:31:29.721Z,32.07
2019-02-14T23:33:59.514Z,33.90
2019-02-14T23:36:29.434Z,31.87
2019-02-14T23:39:00.488Z,30.03
2019-02-14T23:41:31.982Z,32.20
2019-02-14T23:44:01.841Z,29.97
2019-02-14T23:46:31.733Z,29.20
2019-02-14T23:49:02.665Z,30.83
2019-02-14T23:51:32.635Z,31.03
2019-02-14T23:54:02.424Z,33.07
2019-02-14T23:56:32.293Z,30.27
2019-02-14T23:59:03.246Z,31.90
